sensor_id;sensor_type;location;lat;lon;timestamp;P1;durP1;ratioP1;P2;durP2;ratioP2
483;SDS011;228;48.922;12.198;2023-05-21T04:00:30;12.17;;;9.87;;
483;SDS011;228;48.922;12.198;2023-05-21T04:02:57;15.03;;;11.13;;
483;SDS011;228;48.922;12.198;2023-05-21T04:05:23;15.53;;;10.87;;
483;SDS011;228;48.922;12.198;2023-05-21T04:07:49;15.63;;;11.60;;
483;SDS011;228;48.922;12.198;2023-05-21T04:10:15;11.90;;;10.27;;
483;SDS011;228;48.922;12.198;2023-05-21T04:12:41;12.90;;;10.00;;
483;SDS011;228;48.922;12.198;2023-05-21T04:15:07;13.40;;;10.70;;
483;SDS011;228;48.922;12.198;2023-05-21T04:17:35;12.90;;;11.03;;
483;SDS011;228;48.922;12.198;2023-05-21T04:20:01;11.83;;;10.17;;
483;SDS011;228;48.922;12.198;2023-05-21T04:22:29;11.37;;;9.67;;
483;SDS011;228;48.922;12.198;2023-05-21T04:24:55;11.80;;;9.80;;
483;SDS011;228;48.922;12.198;2023-05-21T04:27:27;12.47;;;10.03;;
483;SDS011;228;48.922;12.198;2023-05-21T04:29:53;12.07;;;9.97;;
483;SDS011;228;48.922;12.198;2023-05-21T04:32:21;12.60;;;10.60;;
483;SDS011;228;48.922;12.198;2023-05-21T04:34:47;15.57;;;11.00;;
483;SDS011;228;48.922;12.198;2023-05-21T04:37:14;12.67;;;10.13;;
483;SDS011;228;48.922;12.198;2023-05-21T04:39:44;10.80;;;9.50;;
483;SDS011;228;48.922;12.198;2023-05-21T04:42:11;11.40;;;9.77;;
483;SDS011;228;48.922;12.198;2023-05-21T04:44:37;12.63;;;10.27;;
483;SDS011;228;48.922;12.198;2023-05-21T04:47:04;11.93;;;9.60;;
483;SDS011;228;48.922;12.198;2023-05-21T04:49:32;11.93;;;9.80;;
483;SDS011;228;48.922;12.198;2023-05-21T04:51:59;12.67;;;9.57;;
483;SDS011;228;48.922;12.198;2023-05-21T04:54:27;11.23;;;9.93;;
483;SDS011;228;48.922;12.198;2023-05-21T04:56:53;11.87;;;10.00;;
483;SDS011;228;48.922;12.198;2023-05-21T04:59:19;11.70;;;9.80;;
483;SDS011;228;48.922;12.198;2023-05-21T05:01:45;13.53;;;10.50;;
483;SDS011;228;48.922;12.198;2023-05-21T05:04:11;13.23;;;10.10;;
483;SDS011;228;48.922;12.198;2023-05-21T05:06:37;13.93;;;10.30;;
483;SDS011;228;48.922;12.198;2023-05-21T05:09:04;12.20;;;10.03;;
483;SDS011;228;48.922;12.198;2023-05-21T05:11:30;13.47;;;10.27;;
483;SDS011;228;48.922;12.198;2023-05-21T05:13:56;13.27;;;10.33;;
483;SDS011;228;48.922;12.198;2023-05-21T05:16:22;12.77;;;10.77;;
483;SDS011;228;48.922;12.198;2023-05-21T05:18:54;13.60;;;10.73;;
483;SDS011;228;48.922;12.198;2023-05-21T05:21:21;13.77;;;10.60;;
483;SDS011;228;48.922;12.198;2023-05-21T05:23:48;11.70;;;9.75;;
483;SDS011;228;48.922;12.198;2023-05-21T05:26:15;12.77;;;10.23;;
483;SDS011;228;48.922;12.198;2023-05-21T05:28:41;11.18;;;9.73;;
483;SDS011;228;48.922;12.198;2023-05-21T05:31:07;11.35;;;9.77;;
483;SDS011;228;48.922;12.198;2023-05-21T05:33:33;11.57;;;10.18;;
483;SDS011;228;48.922;12.198;2023-05-21T05:35:59;11.63;;;9.70;;
483;SDS011;228;48.922;12.198;2023-05-21T05:38:25;11.55;;;9.65;;
483;SDS011;228;48.922;12.198;2023-05-21T05:40:51;10.35;;;9.20;;
483;SDS011;228;48.922;12.198;2023-05-21T05:43:17;12.77;;;9.43;;
483;SDS011;228;48.922;12.198;2023-05-21T05:45:44;12.18;;;10.15;;
483;SDS011;228;48.922;12.198;2023-05-21T05:48:12;11.35;;;10.15;;
483;SDS011;228;48.922;12.198;2023-05-21T05:50:39;10.13;;;9.00;;
483;SDS011;228;48.922;12.198;2023-05-21T05:53:05;12.15;;;9.65;;
483;SDS011;228;48.922;12.198;2023-05-21T05:55:31;12.48;;;10.13;;
483;SDS011;228;48.922;12.198;2023-05-21T05:57:57;12.82;;;9.95;;
483;SDS011;228;48.922;12.198;2023-05-21T06:00:23;11.95;;;9.48;;
483;SDS011;228;48.922;12.198;2023-05-21T06:02:50;11.10;;;9.23;;
483;SDS011;228;48.922;12.198;2023-05-21T06:05:16;12.43;;;9.80;;
483;SDS011;228;48.922;12.198;2023-05-21T06:07:42;11.85;;;9.63;;
483;SDS011;228;48.922;12.198;2023-05-21T06:10:08;12.63;;;9.55;;
483;SDS011;228;48.922;12.198;2023-05-21T06:12:35;11.07;;;9.75;;
483;SDS011;228;48.922;12.198;2023-05-21T06:15:01;12.18;;;9.85;;
483;SDS011;228;48.922;12.198;2023-05-21T06:17:30;12.30;;;9.50;;
483;SDS011;228;48.922;12.198;2023-05-21T06:19:56;11.60;;;10.05;;
483;SDS011;228;48.922;12.198;2023-05-21T06:22:23;11.23;;;9.52;;
483;SDS011;228;48.922;12.198;2023-05-21T06:24:50;12.38;;;10.48;;
483;SDS011;228;48.922;12.198;2023-05-21T06:27:16;12.85;;;9.75;;
483;SDS011;228;48.922;12.198;2023-05-21T06:29:42;11.50;;;9.73;;
483;SDS011;228;48.922;12.198;2023-05-21T06:32:08;10.63;;;9.18;;
483;SDS011;228;48.922;12.198;2023-05-21T06:34:34;11.45;;;9.73;;
483;SDS011;228;48.922;12.198;2023-05-21T06:37:00;11.30;;;9.38;;
483;SDS011;228;48.922;12.198;2023-05-21T06:39:27;10.18;;;9.07;;
483;SDS011;228;48.922;12.198;2023-05-21T06:41:53;11.73;;;9.77;;
483;SDS011;228;48.922;12.198;2023-05-21T06:44:45;12.73;;;9.85;;
483;SDS011;228;48.922;12.198;2023-05-21T06:47:34;12.23;;;10.13;;
483;SDS011;228;48.922;12.198;2023-05-21T06:50:00;12.50;;;9.25;;
483;SDS011;228;48.922;12.198;2023-05-21T06:52:27;11.10;;;9.70;;
483;SDS011;228;48.922;12.198;2023-05-21T06:54:53;14.35;;;9.13;;
483;SDS011;228;48.922;12.198;2023-05-21T06:57:21;12.02;;;9.00;;
483;SDS011;228;48.922;12.198;2023-05-21T06:59:47;10.55;;;9.25;;
483;SDS011;228;48.922;12.198;2023-05-21T07:02:13;10.25;;;8.48;;
483;SDS011;228;48.922;12.198;2023-05-21T07:04:41;11.70;;;9.20;;
483;SDS011;228;48.922;12.198;2023-05-21T07:07:07;10.20;;;9.00;;
483;SDS011;228;48.922;12.198;2023-05-21T07:09:33;11.93;;;8.98;;
483;SDS011;228;48.922;12.198;2023-05-21T07:11:59;9.80;;;8.52;;
483;SDS011;228;48.922;12.198;2023-05-21T07:14:27;10.10;;;8.73;;
483;SDS011;228;48.922;12.198;2023-05-21T07:16:53;11.52;;;8.98;;
483;SDS011;228;48.922;12.198;2023-05-21T07:19:19;8.80;;;7.90;;
483;SDS011;228;48.922;12.198;2023-05-21T07:21:47;10.02;;;8.55;;
483;SDS011;228;48.922;12.198;2023-05-21T07:24:13;9.63;;;8.57;;
483;SDS011;228;48.922;12.198;2023-05-21T07:26:41;10.98;;;9.18;;
483;SDS011;228;48.922;12.198;2023-05-21T07:29:07;10.90;;;8.48;;
483;SDS011;228;48.922;12.198;2023-05-21T07:31:33;9.60;;;8.60;;
483;SDS011;228;48.922;12.198;2023-05-21T07:33:59;9.48;;;8.40;;
483;SDS011;228;48.922;12.198;2023-05-21T07:36:28;10.25;;;8.75;;
483;SDS011;228;48.922;12.198;2023-05-21T07:38:55;11.23;;;9.20;;
483;SDS011;228;48.922;12.198;2023-05-21T07:41:21;10.68;;;9.57;;
483;SDS011;228;48.922;12.198;2023-05-21T07:43:48;11.43;;;9.38;;
483;SDS011;228;48.922;12.198;2023-05-21T07:46:14;8.77;;;7.88;;
483;SDS011;228;48.922;12.198;2023-05-21T07:48:41;9.85;;;8.63;;
483;SDS011;228;48.922;12.198;2023-05-21T07:51:08;9.85;;;8.88;;
483;SDS011;228;48.922;12.198;2023-05-21T07:53:35;10.55;;;9.15;;
483;SDS011;228;48.922;12.198;2023-05-21T07:56:05;10.48;;;9.02;;
483;SDS011;228;48.922;12.198;2023-05-21T07:58:32;10.38;;;8.60;;
483;SDS011;228;48.922;12.198;2023-05-21T08:00:59;12.77;;;8.93;;
483;SDS011;228;48.922;12.198;2023-05-21T08:03:26;9.35;;;8.45;;
483;SDS011;228;48.922;12.198;2023-05-21T08:05:56;13.32;;;9.40;;
483;SDS011;228;48.922;12.198;2023-05-21T08:08:23;9.73;;;8.73;;
483;SDS011;228;48.922;12.198;2023-05-21T08:10:52;10.13;;;9.05;;
483;SDS011;228;48.922;12.198;2023-05-21T08:13:19;10.23;;;8.82;;
483;SDS011;228;48.922;12.198;2023-05-21T08:15:47;13.85;;;9.25;;
483;SDS011;228;48.922;12.198;2023-05-21T08:18:14;9.15;;;8.02;;
483;SDS011;228;48.922;12.198;2023-05-21T08:20:43;10.57;;;8.50;;
483;SDS011;228;48.922;12.198;2023-05-21T08:23:11;10.07;;;9.05;;
483;SDS011;228;48.922;12.198;2023-05-21T08:25:43;10.60;;;9.25;;
483;SDS011;228;48.922;12.198;2023-05-21T08:28:10;10.27;;;9.18;;
483;SDS011;228;48.922;12.198;2023-05-21T08:30:37;11.63;;;9.05;;
483;SDS011;228;48.922;12.198;2023-05-21T08:33:03;9.77;;;8.73;;
483;SDS011;228;48.922;12.198;2023-05-21T08:35:31;9.18;;;8.27;;
483;SDS011;228;48.922;12.198;2023-05-21T08:38:23;9.32;;;8.43;;
483;SDS011;228;48.922;12.198;2023-05-21T08:41:13;10.20;;;9.10;;
483;SDS011;228;48.922;12.198;2023-05-21T08:43:44;10.20;;;8.80;;
483;SDS011;228;48.922;12.198;2023-05-21T08:46:11;10.55;;;8.80;;
483;SDS011;228;48.922;12.198;2023-05-21T08:48:39;9.75;;;8.75;;
483;SDS011;228;48.922;12.198;2023-05-21T08:51:05;9.43;;;8.45;;
483;SDS011;228;48.922;12.198;2023-05-21T08:53:36;8.85;;;7.95;;
483;SDS011;228;48.922;12.198;2023-05-21T08:56:06;10.60;;;8.30;;
483;SDS011;228;48.922;12.198;2023-05-21T08:58:47;10.85;;;8.50;;
483;SDS011;228;48.922;12.198;2023-05-21T09:01:17;9.75;;;8.15;;
483;SDS011;228;48.922;12.198;2023-05-21T09:03:46;10.10;;;8.63;;
483;SDS011;228;48.922;12.198;2023-05-21T09:06:13;8.18;;;7.38;;
483;SDS011;228;48.922;12.198;2023-05-21T09:08:43;9.20;;;8.27;;
483;SDS011;228;48.922;12.198;2023-05-21T09:11:17;9.70;;;8.23;;
483;SDS011;228;48.922;12.198;2023-05-21T09:13:50;8.88;;;7.97;;
483;SDS011;228;48.922;12.198;2023-05-21T09:16:25;10.02;;;7.65;;
483;SDS011;228;48.922;12.198;2023-05-21T09:18:51;8.38;;;7.40;;
483;SDS011;228;48.922;12.198;2023-05-21T09:21:28;7.60;;;6.90;;
483;SDS011;228;48.922;12.198;2023-05-21T09:24:08;8.20;;;7.20;;
483;SDS011;228;48.922;12.198;2023-05-21T09:26:36;9.60;;;7.45;;
483;SDS011;228;48.922;12.198;2023-05-21T09:29:04;7.57;;;6.78;;
483;SDS011;228;48.922;12.198;2023-05-21T09:31:30;7.95;;;7.15;;
483;SDS011;228;48.922;12.198;2023-05-21T09:33:57;8.45;;;6.97;;
483;SDS011;228;48.922;12.198;2023-05-21T09:36:24;8.90;;;7.78;;
483;SDS011;228;48.922;12.198;2023-05-21T09:38:52;7.88;;;6.70;;
483;SDS011;228;48.922;12.198;2023-05-21T09:41:18;8.05;;;7.22;;
483;SDS011;228;48.922;12.198;2023-05-21T09:43:46;8.30;;;7.50;;
483;SDS011;228;48.922;12.198;2023-05-21T09:46:13;8.25;;;7.40;;
483;SDS011;228;48.922;12.198;2023-05-21T09:48:40;8.15;;;6.88;;
483;SDS011;228;48.922;12.198;2023-05-21T09:51:16;7.88;;;7.07;;
483;SDS011;228;48.922;12.198;2023-05-21T09:56:22;7.93;;;7.13;;
483;SDS011;228;48.922;12.198;2023-05-21T09:59:00;7.30;;;6.60;;
483;SDS011;228;48.922;12.198;2023-05-21T10:01:31;8.82;;;7.18;;
483;SDS011;228;48.922;12.198;2023-05-21T10:03:58;9.02;;;6.90;;
483;SDS011;228;48.922;12.198;2023-05-21T10:06:28;7.38;;;6.57;;
483;SDS011;228;48.922;12.198;2023-05-21T10:08:56;7.90;;;7.10;;
483;SDS011;228;48.922;12.198;2023-05-21T10:11:29;9.80;;;7.03;;
483;SDS011;228;48.922;12.198;2023-05-21T10:13:57;10.52;;;7.38;;
483;SDS011;228;48.922;12.198;2023-05-21T10:16:30;7.28;;;6.03;;
483;SDS011;228;48.922;12.198;2023-05-21T10:18:58;7.03;;;6.00;;
483;SDS011;228;48.922;12.198;2023-05-21T10:21:25;7.45;;;6.65;;
483;SDS011;228;48.922;12.198;2023-05-21T10:23:52;7.10;;;6.50;;
483;SDS011;228;48.922;12.198;2023-05-21T10:26:22;8.10;;;6.82;;
483;SDS011;228;48.922;12.198;2023-05-21T10:28:53;7.43;;;6.55;;
483;SDS011;228;48.922;12.198;2023-05-21T10:31:24;8.80;;;6.63;;
483;SDS011;228;48.922;12.198;2023-05-21T10:33:52;10.65;;;6.72;;
483;SDS011;228;48.922;12.198;2023-05-21T10:36:19;7.30;;;6.60;;
483;SDS011;228;48.922;12.198;2023-05-21T10:38:46;8.43;;;6.75;;
483;SDS011;228;48.922;12.198;2023-05-21T10:41:16;7.18;;;6.43;;
483;SDS011;228;48.922;12.198;2023-05-21T10:53:04;6.70;;;5.78;;
483;SDS011;228;48.922;12.198;2023-05-21T11:01:36;7.43;;;6.72;;
483;SDS011;228;48.922;12.198;2023-05-21T11:04:04;9.00;;;6.75;;
483;SDS011;228;48.922;12.198;2023-05-21T11:06:31;7.15;;;6.55;;
483;SDS011;228;48.922;12.198;2023-05-21T11:09:10;7.47;;;6.47;;
483;SDS011;228;48.922;12.198;2023-05-21T11:17:40;7.93;;;7.20;;
483;SDS011;228;48.922;12.198;2023-05-21T11:20:12;9.10;;;6.90;;
483;SDS011;228;48.922;12.198;2023-05-21T11:22:38;11.13;;;6.88;;
483;SDS011;228;48.922;12.198;2023-05-21T11:25:04;7.05;;;6.13;;
483;SDS011;228;48.922;12.198;2023-05-21T11:27:35;6.82;;;6.13;;
483;SDS011;228;48.922;12.198;2023-05-21T11:30:03;9.63;;;6.60;;
483;SDS011;228;48.922;12.198;2023-05-21T11:32:39;8.48;;;6.78;;
483;SDS011;228;48.922;12.198;2023-05-21T11:38:10;7.35;;;6.55;;
483;SDS011;228;48.922;12.198;2023-05-21T11:40:36;7.10;;;6.38;;
483;SDS011;228;48.922;12.198;2023-05-21T11:43:03;7.05;;;6.35;;
483;SDS011;228;48.922;12.198;2023-05-21T11:45:29;7.35;;;6.22;;
483;SDS011;228;48.922;12.198;2023-05-21T11:47:56;7.20;;;6.50;;
483;SDS011;228;48.922;12.198;2023-05-21T11:50:23;6.97;;;6.38;;
483;SDS011;228;48.922;12.198;2023-05-21T11:52:50;10.45;;;6.55;;
483;SDS011;228;48.922;12.198;2023-05-21T11:55:20;7.80;;;6.65;;
483;SDS011;228;48.922;12.198;2023-05-21T11:57:51;6.97;;;6.28;;
483;SDS011;228;48.922;12.198;2023-05-21T12:00:19;7.15;;;6.40;;
483;SDS011;228;48.922;12.198;2023-05-21T12:02:46;7.40;;;6.30;;
483;SDS011;228;48.922;12.198;2023-05-21T12:05:20;6.60;;;6.00;;
483;SDS011;228;48.922;12.198;2023-05-21T12:07:47;7.35;;;6.35;;
483;SDS011;228;48.922;12.198;2023-05-21T12:10:19;6.45;;;5.85;;
483;SDS011;228;48.922;12.198;2023-05-21T12:12:47;7.32;;;6.63;;
483;SDS011;228;48.922;12.198;2023-05-21T12:15:17;7.28;;;6.50;;
483;SDS011;228;48.922;12.198;2023-05-21T12:17:48;7.90;;;6.57;;
483;SDS011;228;48.922;12.198;2023-05-21T12:20:16;7.78;;;7.10;;
483;SDS011;228;48.922;12.198;2023-05-21T12:22:43;7.40;;;6.70;;
483;SDS011;228;48.922;12.198;2023-05-21T12:25:10;6.65;;;6.03;;
483;SDS011;228;48.922;12.198;2023-05-21T12:27:36;7.22;;;6.53;;
483;SDS011;228;48.922;12.198;2023-05-21T12:30:02;7.63;;;6.93;;
483;SDS011;228;48.922;12.198;2023-05-21T12:32:29;7.00;;;6.38;;
483;SDS011;228;48.922;12.198;2023-05-21T12:34:55;6.57;;;5.97;;
483;SDS011;228;48.922;12.198;2023-05-21T12:37:25;6.40;;;5.72;;
483;SDS011;228;48.922;12.198;2023-05-21T12:39:57;6.63;;;6.03;;
483;SDS011;228;48.922;12.198;2023-05-21T12:42:25;7.25;;;6.03;;
483;SDS011;228;48.922;12.198;2023-05-21T12:44:59;6.80;;;6.18;;
483;SDS011;228;48.922;12.198;2023-05-21T12:47:35;6.72;;;5.85;;
483;SDS011;228;48.922;12.198;2023-05-21T12:50:08;7.10;;;6.18;;
483;SDS011;228;48.922;12.198;2023-05-21T12:52:36;7.50;;;5.72;;
483;SDS011;228;48.922;12.198;2023-05-21T12:55:04;6.88;;;6.22;;
483;SDS011;228;48.922;12.198;2023-05-21T12:57:34;7.35;;;6.65;;
483;SDS011;228;48.922;12.198;2023-05-21T13:00:03;6.88;;;6.28;;
483;SDS011;228;48.922;12.198;2023-05-21T13:02:37;6.60;;;6.00;;
483;SDS011;228;48.922;12.198;2023-05-21T13:05:09;6.68;;;6.07;;
483;SDS011;228;48.922;12.198;2023-05-21T13:07:43;6.60;;;5.97;;
483;SDS011;228;48.922;12.198;2023-05-21T13:10:16;9.35;;;6.18;;
483;SDS011;228;48.922;12.198;2023-05-21T13:12:42;8.02;;;7.20;;
483;SDS011;228;48.922;12.198;2023-05-21T13:15:09;6.68;;;6.07;;
483;SDS011;228;48.922;12.198;2023-05-21T13:17:35;6.72;;;6.13;;
483;SDS011;228;48.922;12.198;2023-05-21T13:22:34;6.40;;;5.47;;
483;SDS011;228;48.922;12.198;2023-05-21T13:25:20;7.43;;;5.90;;
483;SDS011;228;48.922;12.198;2023-05-21T13:27:49;6.38;;;5.80;;
483;SDS011;228;48.922;12.198;2023-05-21T13:30:17;6.78;;;6.15;;
483;SDS011;228;48.922;12.198;2023-05-21T13:32:44;6.65;;;5.78;;
483;SDS011;228;48.922;12.198;2023-05-21T13:35:10;6.35;;;5.75;;
483;SDS011;228;48.922;12.198;2023-05-21T13:37:37;6.25;;;5.65;;
483;SDS011;228;48.922;12.198;2023-05-21T13:40:05;7.05;;;6.40;;
483;SDS011;228;48.922;12.198;2023-05-21T13:42:35;6.55;;;5.63;;
483;SDS011;228;48.922;12.198;2023-05-21T13:45:06;6.13;;;5.55;;
483;SDS011;228;48.922;12.198;2023-05-21T13:47:34;7.00;;;6.30;;
483;SDS011;228;48.922;12.198;2023-05-21T13:50:00;7.25;;;6.45;;
483;SDS011;228;48.922;12.198;2023-05-21T13:52:26;6.50;;;5.90;;
483;SDS011;228;48.922;12.198;2023-05-21T13:54:52;7.00;;;6.00;;
483;SDS011;228;48.922;12.198;2023-05-21T13:57:18;6.65;;;6.05;;
483;SDS011;228;48.922;12.198;2023-05-21T13:59:44;6.72;;;5.65;;
483;SDS011;228;48.922;12.198;2023-05-21T14:02:10;6.57;;;5.88;;
483;SDS011;228;48.922;12.198;2023-05-21T14:04:37;7.50;;;5.95;;
483;SDS011;228;48.922;12.198;2023-05-21T14:07:03;8.00;;;6.15;;
483;SDS011;228;48.922;12.198;2023-05-21T14:09:29;6.57;;;5.88;;
483;SDS011;228;48.922;12.198;2023-05-21T14:11:56;6.35;;;5.85;;
483;SDS011;228;48.922;12.198;2023-05-21T14:14:23;7.57;;;6.15;;
483;SDS011;228;48.922;12.198;2023-05-21T14:16:49;6.30;;;5.70;;
483;SDS011;228;48.922;12.198;2023-05-21T14:19:15;7.22;;;6.53;;
483;SDS011;228;48.922;12.198;2023-05-21T14:21:42;6.40;;;5.85;;
483;SDS011;228;48.922;12.198;2023-05-21T14:24:08;6.32;;;5.72;;
483;SDS011;228;48.922;12.198;2023-05-21T14:26:36;6.88;;;6.18;;
483;SDS011;228;48.922;12.198;2023-05-21T14:29:04;7.38;;;6.32;;
483;SDS011;228;48.922;12.198;2023-05-21T14:31:30;7.00;;;6.30;;
483;SDS011;228;48.922;12.198;2023-05-21T14:33:56;6.78;;;6.18;;
483;SDS011;228;48.922;12.198;2023-05-21T14:36:22;7.03;;;5.90;;
483;SDS011;228;48.922;12.198;2023-05-21T14:38:48;6.50;;;5.97;;
483;SDS011;228;48.922;12.198;2023-05-21T14:41:14;6.82;;;6.22;;
483;SDS011;228;48.922;12.198;2023-05-21T14:43:40;7.18;;;5.80;;
483;SDS011;228;48.922;12.198;2023-05-21T14:46:06;6.38;;;5.82;;
483;SDS011;228;48.922;12.198;2023-05-21T14:48:32;7.28;;;6.57;;
483;SDS011;228;48.922;12.198;2023-05-21T14:50:58;7.30;;;6.10;;
483;SDS011;228;48.922;12.198;2023-05-21T14:53:24;7.00;;;6.32;;
483;SDS011;228;48.922;12.198;2023-05-21T14:55:50;6.18;;;5.70;;
483;SDS011;228;48.922;12.198;2023-05-21T14:58:18;6.78;;;6.03;;
483;SDS011;228;48.922;12.198;2023-05-21T15:00:44;6.03;;;5.53;;
483;SDS011;228;48.922;12.198;2023-05-21T15:03:10;6.25;;;5.75;;
483;SDS011;228;48.922;12.198;2023-05-21T15:05:37;6.90;;;6.20;;
483;SDS011;228;48.922;12.198;2023-05-21T15:08:03;6.55;;;6.05;;
483;SDS011;228;48.922;12.198;2023-05-21T15:10:30;6.28;;;5.78;;
483;SDS011;228;48.922;12.198;2023-05-21T15:12:56;7.05;;;6.35;;
483;SDS011;228;48.922;12.198;2023-05-21T15:15:22;6.60;;;6.00;;
483;SDS011;228;48.922;12.198;2023-05-21T15:17:48;6.95;;;6.35;;
483;SDS011;228;48.922;12.198;2023-05-21T15:20:14;6.25;;;5.68;;
483;SDS011;228;48.922;12.198;2023-05-21T15:22:41;6.55;;;5.95;;
483;SDS011;228;48.922;12.198;2023-05-21T15:25:07;7.05;;;6.35;;
483;SDS011;228;48.922;12.198;2023-05-21T15:27:35;6.82;;;6.13;;
483;SDS011;228;48.922;12.198;2023-05-21T15:30:01;6.80;;;6.10;;
483;SDS011;228;48.922;12.198;2023-05-21T15:32:29;6.05;;;5.55;;
483;SDS011;228;48.922;12.198;2023-05-21T15:34:55;6.22;;;5.72;;
483;SDS011;228;48.922;12.198;2023-05-21T15:37:21;7.03;;;6.30;;
483;SDS011;228;48.922;12.198;2023-05-21T15:39:48;6.82;;;6.22;;
483;SDS011;228;48.922;12.198;2023-05-21T15:42:14;6.65;;;6.00;;
483;SDS011;228;48.922;12.198;2023-05-21T15:44:40;7.07;;;6.40;;
483;SDS011;228;48.922;12.198;2023-05-21T15:47:06;6.32;;;5.72;;
483;SDS011;228;48.922;12.198;2023-05-21T15:49:33;7.00;;;6.22;;
483;SDS011;228;48.922;12.198;2023-05-21T15:51:59;6.68;;;6.18;;
483;SDS011;228;48.922;12.198;2023-05-21T15:54:27;7.10;;;5.97;;
483;SDS011;228;48.922;12.198;2023-05-21T15:56:54;6.85;;;6.18;;
483;SDS011;228;48.922;12.198;2023-05-21T15:59:20;7.10;;;6.40;;
483;SDS011;228;48.922;12.198;2023-05-21T16:01:46;6.90;;;5.78;;
483;SDS011;228;48.922;12.198;2023-05-21T16:04:13;6.82;;;6.00;;
483;SDS011;228;48.922;12.198;2023-05-21T16:06:41;7.10;;;6.40;;
483;SDS011;228;48.922;12.198;2023-05-21T16:09:07;6.47;;;5.65;;
483;SDS011;228;48.922;12.198;2023-05-21T16:11:33;6.55;;;5.97;;
483;SDS011;228;48.922;12.198;2023-05-21T16:14:00;6.18;;;5.60;;
483;SDS011;228;48.922;12.198;2023-05-21T16:16:26;6.90;;;6.13;;
483;SDS011;228;48.922;12.198;2023-05-21T16:18:52;6.32;;;5.72;;
483;SDS011;228;48.922;12.198;2023-05-21T16:21:18;6.43;;;5.82;;
483;SDS011;228;48.922;12.198;2023-05-21T16:23:44;6.10;;;5.50;;
483;SDS011;228;48.922;12.198;2023-05-21T16:26:11;6.25;;;5.65;;
483;SDS011;228;48.922;12.198;2023-05-21T16:28:37;5.93;;;5.40;;
483;SDS011;228;48.922;12.198;2023-05-21T16:31:04;6.15;;;5.65;;
483;SDS011;228;48.922;12.198;2023-05-21T16:33:30;6.82;;;6.13;;
483;SDS011;228;48.922;12.198;2023-05-21T16:35:57;6.55;;;5.82;;
483;SDS011;228;48.922;12.198;2023-05-21T16:38:23;6.20;;;5.57;;
483;SDS011;228;48.922;12.198;2023-05-21T16:40:49;6.93;;;6.32;;
483;SDS011;228;48.922;12.198;2023-05-21T16:43:16;6.65;;;6.05;;
483;SDS011;228;48.922;12.198;2023-05-21T16:45:45;6.40;;;5.80;;
483;SDS011;228;48.922;12.198;2023-05-21T16:48:13;8.60;;;6.32;;
483;SDS011;228;48.922;12.198;2023-05-21T16:50:40;8.93;;;6.28;;
483;SDS011;228;48.922;12.198;2023-05-21T16:53:08;6.88;;;6.18;;
483;SDS011;228;48.922;12.198;2023-05-21T16:55:35;6.35;;;5.32;;
483;SDS011;228;48.922;12.198;2023-05-21T16:58:03;6.40;;;5.80;;
483;SDS011;228;48.922;12.198;2023-05-21T17:00:30;6.53;;;5.93;;
483;SDS011;228;48.922;12.198;2023-05-21T17:02:57;8.55;;;6.07;;
483;SDS011;228;48.922;12.198;2023-05-21T17:05:23;6.82;;;5.95;;
483;SDS011;228;48.922;12.198;2023-05-21T17:07:50;6.43;;;5.82;;
483;SDS011;228;48.922;12.198;2023-05-21T17:10:18;7.03;;;5.53;;
483;SDS011;228;48.922;12.198;2023-05-21T17:12:44;6.47;;;5.68;;
483;SDS011;228;48.922;12.198;2023-05-21T17:15:10;6.20;;;5.60;;
483;SDS011;228;48.922;12.198;2023-05-21T17:17:37;7.13;;;5.20;;
483;SDS011;228;48.922;12.198;2023-05-21T17:20:03;8.57;;;5.47;;
483;SDS011;228;48.922;12.198;2023-05-21T17:22:30;6.90;;;5.80;;
483;SDS011;228;48.922;12.198;2023-05-21T17:24:56;6.25;;;5.38;;
483;SDS011;228;48.922;12.198;2023-05-21T17:27:23;6.20;;;5.60;;
483;SDS011;228;48.922;12.198;2023-05-21T17:29:49;7.60;;;5.85;;
483;SDS011;228;48.922;12.198;2023-05-21T17:32:15;6.55;;;5.95;;
483;SDS011;228;48.922;12.198;2023-05-21T17:34:41;5.93;;;5.30;;
483;SDS011;228;48.922;12.198;2023-05-21T17:37:08;6.25;;;5.65;;
483;SDS011;228;48.922;12.198;2023-05-21T17:39:34;6.03;;;5.43;;
483;SDS011;228;48.922;12.198;2023-05-21T17:42:00;7.40;;;5.90;;
483;SDS011;228;48.922;12.198;2023-05-21T17:44:26;6.63;;;6.03;;
483;SDS011;228;48.922;12.198;2023-05-21T17:46:52;6.32;;;5.72;;
483;SDS011;228;48.922;12.198;2023-05-21T17:49:18;6.60;;;5.35;;
483;SDS011;228;48.922;12.198;2023-05-21T17:51:44;7.45;;;5.47;;
483;SDS011;228;48.922;12.198;2023-05-21T17:54:10;7.28;;;5.63;;
483;SDS011;228;48.922;12.198;2023-05-21T17:56:36;6.93;;;5.90;;
483;SDS011;228;48.922;12.198;2023-05-21T17:59:05;7.03;;;5.85;;
483;SDS011;228;48.922;12.198;2023-05-21T18:01:33;7.15;;;5.75;;
483;SDS011;228;48.922;12.198;2023-05-21T18:04:01;6.20;;;5.60;;
483;SDS011;228;48.922;12.198;2023-05-21T18:06:29;7.15;;;6.10;;
483;SDS011;228;48.922;12.198;2023-05-21T18:08:55;6.43;;;5.65;;
483;SDS011;228;48.922;12.198;2023-05-21T18:11:21;6.97;;;5.68;;
483;SDS011;228;48.922;12.198;2023-05-21T18:13:48;6.28;;;5.68;;
483;SDS011;228;48.922;12.198;2023-05-21T18:16:15;6.50;;;5.63;;
483;SDS011;228;48.922;12.198;2023-05-21T18:18:42;6.60;;;5.90;;
483;SDS011;228;48.922;12.198;2023-05-21T18:21:11;7.82;;;5.93;;
483;SDS011;228;48.922;12.198;2023-05-21T18:23:37;9.10;;;6.03;;
483;SDS011;228;48.922;12.198;2023-05-21T18:26:04;6.65;;;5.95;;
483;SDS011;228;48.922;12.198;2023-05-21T18:28:30;8.25;;;5.72;;
483;SDS011;228;48.922;12.198;2023-05-21T18:30:58;7.55;;;6.13;;
483;SDS011;228;48.922;12.198;2023-05-21T18:33:30;7.32;;;6.20;;
483;SDS011;228;48.922;12.198;2023-05-21T18:35:56;6.97;;;6.28;;
483;SDS011;228;48.922;12.198;2023-05-21T18:38:22;6.88;;;5.93;;
483;SDS011;228;48.922;12.198;2023-05-21T18:40:48;7.20;;;6.45;;
483;SDS011;228;48.922;12.198;2023-05-21T18:43:16;6.93;;;6.10;;
483;SDS011;228;48.922;12.198;2023-05-21T18:45:42;6.40;;;5.80;;
483;SDS011;228;48.922;12.198;2023-05-21T18:48:09;7.22;;;6.53;;
483;SDS011;228;48.922;12.198;2023-05-21T18:50:36;6.43;;;5.40;;
483;SDS011;228;48.922;12.198;2023-05-21T18:53:03;8.57;;;6.50;;
483;SDS011;228;48.922;12.198;2023-05-21T18:55:29;6.82;;;6.13;;
483;SDS011;228;48.922;12.198;2023-05-21T18:57:55;7.13;;;6.43;;
483;SDS011;228;48.922;12.198;2023-05-21T19:00:22;7.45;;;6.28;;
483;SDS011;228;48.922;12.198;2023-05-21T19:02:48;6.97;;;5.90;;
483;SDS011;228;48.922;12.198;2023-05-21T19:05:14;10.55;;;6.88;;
483;SDS011;228;48.922;12.198;2023-05-21T19:07:40;7.70;;;6.22;;
483;SDS011;228;48.922;12.198;2023-05-21T19:10:06;7.38;;;5.80;;
483;SDS011;228;48.922;12.198;2023-05-21T19:12:35;7.80;;;6.50;;
483;SDS011;228;48.922;12.198;2023-05-21T19:15:04;7.72;;;6.88;;
483;SDS011;228;48.922;12.198;2023-05-21T19:17:31;6.95;;;6.18;;
483;SDS011;228;48.922;12.198;2023-05-21T19:19:59;6.65;;;6.03;;
483;SDS011;228;48.922;12.198;2023-05-21T19:22:25;8.25;;;6.00;;
483;SDS011;228;48.922;12.198;2023-05-21T19:24:52;7.82;;;6.88;;
483;SDS011;228;48.922;12.198;2023-05-21T19:27:19;7.13;;;6.00;;
483;SDS011;228;48.922;12.198;2023-05-21T19:29:45;7.07;;;6.30;;
483;SDS011;228;48.922;12.198;2023-05-21T19:32:12;7.90;;;6.20;;
483;SDS011;228;48.922;12.198;2023-05-21T19:34:40;8.25;;;6.38;;
483;SDS011;228;48.922;12.198;2023-05-21T19:37:07;7.90;;;6.63;;
483;SDS011;228;48.922;12.198;2023-05-21T19:39:39;9.45;;;6.68;;
483;SDS011;228;48.922;12.198;2023-05-21T19:42:07;7.38;;;6.35;;
483;SDS011;228;48.922;12.198;2023-05-21T19:44:35;7.50;;;6.25;;
483;SDS011;228;48.922;12.198;2023-05-21T19:47:04;7.40;;;6.30;;
483;SDS011;228;48.922;12.198;2023-05-21T19:49:31;7.72;;;6.68;;
483;SDS011;228;48.922;12.198;2023-05-21T19:51:57;7.97;;;6.35;;
483;SDS011;228;48.922;12.198;2023-05-21T19:54:23;8.13;;;6.80;;
483;SDS011;228;48.922;12.198;2023-05-21T19:56:49;8.15;;;6.90;;